sensor_id;sensor_type;location;lat;lon;timestamp;P1;durP1;ratioP1;P2;durP2;ratioP2
7169;SDS011;3626;42.656;23.312;2023-04-01T00:00:04;18.75;;;6.70;;
7169;SDS011;3626;42.656;23.312;2023-04-01T00:00:12;20.28;;;6.68;;
7169;SDS011;3626;42.656;23.312;2023-04-01T00:00:19;21.82;;;6.35;;
7169;SDS011;3626;42.656;23.312;2023-04-01T00:00:26;20.50;;;6.07;;
7169;SDS011;3626;42.656;23.312;2023-04-01T00:00:31;20.35;;;6.03;;
7169;SDS011;3626;42.656;23.312;2023-04-01T00:00:37;19.63;;;5.90;;
7169;SDS011;3626;42.656;23.312;2023-04-01T00:00:44;19.95;;;5.80;;
7169;SDS011;3626;42.656;23.312;2023-04-01T00:00:50;20.10;;;5.70;;
7169;SDS011;3626;42.656;23.312;2023-04-01T00:00:57;19.50;;;5.66;;
7169;SDS011;3626;42.656;23.312;2023-04-01T00:01:04;17.27;;;5.50;;
7169;SDS011;3626;42.656;23.312;2023-04-01T00:01:13;16.13;;;5.65;;
7169;SDS011;3626;42.656;23.312;2023-04-01T00:01:19;13.98;;;5.53;;
7169;SDS011;3626;42.656;23.312;2023-04-01T00:01:25;13.48;;;5.50;;
7169;SDS011;3626;42.656;23.312;2023-04-01T00:01:32;13.15;;;5.50;;
7169;SDS011;3626;42.656;23.312;2023-04-01T00:01:38;13.65;;;5.72;;
7169;SDS011;3626;42.656;23.312;2023-04-01T00:01:43;12.85;;;5.72;;
7169;SDS011;3626;42.656;23.312;2023-04-01T00:01:49;12.57;;;5.80;;
7169;SDS011;3626;42.656;23.312;2023-04-01T00:01:56;13.53;;;5.90;;
7169;SDS011;3626;42.656;23.312;2023-04-01T00:02:02;14.00;;;6.00;;
7169;SDS011;3626;42.656;23.312;2023-04-01T00:02:07;14.02;;;5.88;;
7169;SDS011;3626;42.656;23.312;2023-04-01T00:02:13;13.75;;;5.80;;
7169;SDS011;3626;42.656;23.312;2023-04-01T00:02:19;13.30;;;5.72;;
7169;SDS011;3626;42.656;23.312;2023-04-01T00:02:25;14.50;;;5.95;;
7169;SDS011;3626;42.656;23.312;2023-04-01T00:02:31;16.40;;;6.00;;
7169;SDS011;3626;42.656;23.312;2023-04-01T00:02:36;16.15;;;5.90;;
7169;SDS011;3626;42.656;23.312;2023-04-01T00:02:42;17.00;;;5.80;;
7169;SDS011;3626;42.656;23.312;2023-04-01T00:02:48;17.30;;;6.13;;
7169;SDS011;3626;42.656;23.312;2023-04-01T00:02:54;17.17;;;6.22;;
7169;SDS011;3626;42.656;23.312;2023-04-01T00:03:00;18.60;;;6.40;;
7169;SDS011;3626;42.656;23.312;2023-04-01T00:03:06;19.08;;;6.50;;
7169;SDS011;3626;42.656;23.312;2023-04-01T00:03:12;18.86;;;6.60;;
7169;SDS011;3626;42.656;23.312;2023-04-01T00:03:18;19.30;;;6.90;;
7169;SDS011;3626;42.656;23.312;2023-04-01T00:03:25;17.80;;;6.77;;
7169;SDS011;3626;42.656;23.312;2023-04-01T00:03:32;16.13;;;6.70;;
7169;SDS011;3626;42.656;23.312;2023-04-01T00:03:38;17.08;;;6.74;;
7169;SDS011;3626;42.656;23.312;2023-04-01T00:03:44;16.42;;;6.68;;
7169;SDS011;3626;42.656;23.312;2023-04-01T00:03:50;16.25;;;6.50;;
7169;SDS011;3626;42.656;23.312;2023-04-01T00:03:56;16.67;;;6.60;;
7169;SDS011;3626;42.656;23.312;2023-04-01T00:04:02;14.73;;;6.53;;
7169;SDS011;3626;42.656;23.312;2023-04-01T00:04:07;14.70;;;6.63;;
7169;SDS011;3626;42.656;23.312;2023-04-01T00:04:13;16.55;;;6.70;;
7169;SDS011;3626;42.656;23.312;2023-04-01T00:04:20;18.66;;;6.72;;
7169;SDS011;3626;42.656;23.312;2023-04-01T00:04:26;19.65;;;6.80;;
7169;SDS011;3626;42.656;23.312;2023-04-01T00:04:32;20.33;;;6.85;;
7169;SDS011;3626;42.656;23.312;2023-04-01T00:04:38;20.53;;;6.80;;
7169;SDS011;3626;42.656;23.312;2023-04-01T00:04:43;20.80;;;6.90;;
7169;SDS011;3626;42.656;23.312;2023-04-01T00:04:49;20.65;;;6.95;;
7169;SDS011;3626;42.656;23.312;2023-04-01T00:04:55;20.38;;;6.90;;
7169;SDS011;3626;42.656;23.312;2023-04-01T00:05:01;21.50;;;6.90;;
7169;SDS011;3626;42.656;23.312;2023-04-01T00:05:07;21.97;;;6.90;;
7169;SDS011;3626;42.656;23.312;2023-04-01T00:05:15;19.87;;;6.70;;
7169;SDS011;3626;42.656;23.312;2023-04-01T00:05:21;17.80;;;6.67;;
7169;SDS011;3626;42.656;23.312;2023-04-01T00:05:29;17.30;;;6.80;;
7169;SDS011;3626;42.656;23.312;2023-04-01T00:05:35;17.45;;;6.95;;
7169;SDS011;3626;42.656;23.312;2023-04-01T00:05:41;18.10;;;6.93;;
7169;SDS011;3626;42.656;23.312;2023-04-01T00:05:47;17.80;;;6.65;;
7169;SDS011;3626;42.656;23.312;2023-04-01T00:05:53;17.30;;;6.45;;
7169;SDS011;3626;42.656;23.312;2023-04-01T00:05:59;17.15;;;6.35;;
7169;SDS011;3626;42.656;23.312;2023-04-01T00:06:08;17.30;;;6.30;;
7169;SDS011;3626;42.656;23.312;2023-04-01T00:06:16;17.63;;;6.30;;
7169;SDS011;3626;42.656;23.312;2023-04-01T00:06:23;18.16;;;6.26;;
7169;SDS011;3626;42.656;23.312;2023-04-01T00:06:28;20.35;;;6.18;;
7169;SDS011;3626;42.656;23.312;2023-04-01T00:06:34;19.17;;;5.97;;
7169;SDS011;3626;42.656;23.312;2023-04-01T00:06:40;18.33;;;5.95;;
7169;SDS011;3626;42.656;23.312;2023-04-01T00:06:46;19.30;;;6.10;;
7169;SDS011;3626;42.656;23.312;2023-04-01T00:06:52;23.48;;;6.47;;
7169;SDS011;3626;42.656;23.312;2023-04-01T00:06:59;22.63;;;6.60;;
7169;SDS011;3626;42.656;23.312;2023-04-01T00:07:06;21.70;;;6.60;;
7169;SDS011;3626;42.656;23.312;2023-04-01T00:07:12;21.52;;;6.60;;
7169;SDS011;3626;42.656;23.312;2023-04-01T00:07:18;21.05;;;6.53;;
7169;SDS011;3626;42.656;23.312;2023-04-01T00:07:24;20.10;;;6.72;;
7169;SDS011;3626;42.656;23.312;2023-04-01T00:07:30;18.63;;;6.67;;
7169;SDS011;3626;42.656;23.312;2023-04-01T00:07:38;21.43;;;6.80;;
7169;SDS011;3626;42.656;23.312;2023-04-01T00:07:44;20.47;;;6.70;;
7169;SDS011;3626;42.656;23.312;2023-04-01T00:07:50;17.43;;;6.50;;
7169;SDS011;3626;42.656;23.312;2023-04-01T00:07:56;17.90;;;6.40;;
7169;SDS011;3626;42.656;23.312;2023-04-01T00:08:02;18.42;;;6.30;;
7169;SDS011;3626;42.656;23.312;2023-04-01T00:08:08;18.13;;;6.20;;
7169;SDS011;3626;42.656;23.312;2023-04-01T00:08:14;18.40;;;6.20;;
7169;SDS011;3626;42.656;23.312;2023-04-01T00:08:20;17.70;;;6.03;;
7169;SDS011;3626;42.656;23.312;2023-04-01T00:08:27;17.00;;;5.83;;
7169;SDS011;3626;42.656;23.312;2023-04-01T00:08:34;15.90;;;5.93;;
7169;SDS011;3626;42.656;23.312;2023-04-01T00:08:40;15.00;;;6.03;;
7169;SDS011;3626;42.656;23.312;2023-04-01T00:08:45;15.68;;;6.22;;
7169;SDS011;3626;42.656;23.312;2023-04-01T00:08:51;15.45;;;6.20;;
7169;SDS011;3626;42.656;23.312;2023-04-01T00:08:58;14.30;;;6.30;;
7169;SDS011;3626;42.656;23.312;2023-04-01T00:09:03;14.07;;;6.33;;
7169;SDS011;3626;42.656;23.312;2023-04-01T00:09:09;14.88;;;6.68;;
7169;SDS011;3626;42.656;23.312;2023-04-01T00:09:15;16.20;;;6.78;;
7169;SDS011;3626;42.656;23.312;2023-04-01T00:09:21;16.60;;;6.82;;
7169;SDS011;3626;42.656;23.312;2023-04-01T00:09:27;16.33;;;6.80;;
7169;SDS011;3626;42.656;23.312;2023-04-01T00:09:33;15.75;;;6.68;;
7169;SDS011;3626;42.656;23.312;2023-04-01T00:09:40;14.97;;;6.50;;
7169;SDS011;3626;42.656;23.312;2023-04-01T00:09:46;14.00;;;6.30;;
7169;SDS011;3626;42.656;23.312;2023-04-01T00:09:51;15.38;;;6.57;;
7169;SDS011;3626;42.656;23.312;2023-04-01T00:09:58;15.90;;;6.53;;
7169;SDS011;3626;42.656;23.312;2023-04-01T00:10:04;16.88;;;6.47;;
7169;SDS011;3626;42.656;23.312;2023-04-01T00:10:11;16.04;;;6.20;;
7169;SDS011;3626;42.656;23.312;2023-04-01T00:10:18;17.57;;;6.22;;
7169;SDS011;3626;42.656;23.312;2023-04-01T00:10:24;18.05;;;6.13;;
7169;SDS011;3626;42.656;23.312;2023-04-01T00:10:30;19.63;;;6.28;;
7169;SDS011;3626;42.656;23.312;2023-04-01T00:10:36;19.65;;;6.25;;
7169;SDS011;3626;42.656;23.312;2023-04-01T00:10:42;19.88;;;6.30;;
7169;SDS011;3626;42.656;23.312;2023-04-01T00:10:47;19.70;;;6.40;;
7169;SDS011;3626;42.656;23.312;2023-04-01T00:10:54;18.15;;;6.20;;
7169;SDS011;3626;42.656;23.312;2023-04-01T00:11:00;16.82;;;6.12;;
7169;SDS011;3626;42.656;23.312;2023-04-01T00:11:07;16.60;;;6.20;;
7169;SDS011;3626;42.656;23.312;2023-04-01T00:11:13;15.65;;;6.10;;
7169;SDS011;3626;42.656;23.312;2023-04-01T00:11:19;15.57;;;6.30;;
7169;SDS011;3626;42.656;23.312;2023-04-01T00:11:26;17.30;;;6.40;;
7169;SDS011;3626;42.656;23.312;2023-04-01T00:11:32;16.77;;;6.40;;
7169;SDS011;3626;42.656;23.312;2023-04-01T00:11:38;17.42;;;6.57;;
7169;SDS011;3626;42.656;23.312;2023-04-01T00:11:44;18.10;;;6.57;;
7169;SDS011;3626;42.656;23.312;2023-04-01T00:11:50;18.92;;;6.40;;
7169;SDS011;3626;42.656;23.312;2023-04-01T00:11:56;19.10;;;6.40;;
7169;SDS011;3626;42.656;23.312;2023-04-01T00:12:02;19.03;;;6.33;;
7169;SDS011;3626;42.656;23.312;2023-04-01T00:12:08;19.08;;;6.30;;
7169;SDS011;3626;42.656;23.312;2023-04-01T00:12:13;18.27;;;6.30;;
7169;SDS011;3626;42.656;23.312;2023-04-01T00:12:19;17.63;;;6.25;;
7169;SDS011;3626;42.656;23.312;2023-04-01T00:12:25;14.98;;;6.32;;
7169;SDS011;3626;42.656;23.312;2023-04-01T00:12:31;14.85;;;6.40;;
7169;SDS011;3626;42.656;23.312;2023-04-01T00:12:38;15.98;;;6.22;;
7169;SDS011;3626;42.656;23.312;2023-04-01T00:12:45;17.00;;;6.08;;
7169;SDS011;3626;42.656;23.312;2023-04-01T00:12:52;15.84;;;5.90;;
7169;SDS011;3626;42.656;23.312;2023-04-01T00:12:58;15.60;;;5.80;;
7169;SDS011;3626;42.656;23.312;2023-04-01T00:13:04;15.70;;;5.90;;
7169;SDS011;3626;42.656;23.312;2023-04-01T00:13:10;16.13;;;6.03;;
7169;SDS011;3626;42.656;23.312;2023-04-01T00:13:18;15.73;;;5.92;;
7169;SDS011;3626;42.656;23.312;2023-04-01T00:13:24;16.58;;;5.90;;
7169;SDS011;3626;42.656;23.312;2023-04-01T00:13:31;16.72;;;5.86;;
7169;SDS011;3626;42.656;23.312;2023-04-01T00:13:37;15.07;;;5.87;;
7169;SDS011;3626;42.656;23.312;2023-04-01T00:13:43;13.25;;;5.78;;
7169;SDS011;3626;42.656;23.312;2023-04-01T00:13:49;13.20;;;5.95;;
7169;SDS011;3626;42.656;23.312;2023-04-01T00:13:56;13.38;;;6.10;;
7169;SDS011;3626;42.656;23.312;2023-04-01T00:14:02;13.75;;;6.20;;
7169;SDS011;3626;42.656;23.312;2023-04-01T00:14:08;13.45;;;6.20;;
7169;SDS011;3626;42.656;23.312;2023-04-01T00:14:15;14.10;;;6.32;;
7169;SDS011;3626;42.656;23.312;2023-04-01T00:14:21;14.63;;;6.32;;
7169;SDS011;3626;42.656;23.312;2023-04-01T00:14:27;14.07;;;6.22;;
7169;SDS011;3626;42.656;23.312;2023-04-01T00:14:33;13.20;;;6.20;;
7169;SDS011;3626;42.656;23.312;2023-04-01T00:14:39;13.20;;;6.30;;
7169;SDS011;3626;42.656;23.312;2023-04-01T00:14:45;12.88;;;6.32;;
7169;SDS011;3626;42.656;23.312;2023-04-01T00:14:51;13.63;;;6.35;;
7169;SDS011;3626;42.656;23.312;2023-04-01T00:14:57;16.38;;;6.45;;
7169;SDS011;3626;42.656;23.312;2023-04-01T00:15:03;15.95;;;6.28;;
7169;SDS011;3626;42.656;23.312;2023-04-01T00:15:10;16.07;;;6.10;;
7169;SDS011;3626;42.656;23.312;2023-04-01T00:15:17;14.33;;;5.80;;
7169;SDS011;3626;42.656;23.312;2023-04-01T00:15:23;13.68;;;5.68;;
7169;SDS011;3626;42.656;23.312;2023-04-01T00:15:28;13.73;;;5.53;;
7169;SDS011;3626;42.656;23.312;2023-04-01T00:15:34;13.93;;;5.60;;
7169;SDS011;3626;42.656;23.312;2023-04-01T00:15:40;14.60;;;5.60;;
7169;SDS011;3626;42.656;23.312;2023-04-01T00:15:46;15.60;;;5.70;;
7169;SDS011;3626;42.656;23.312;2023-04-01T00:15:54;13.52;;;5.64;;
7169;SDS011;3626;42.656;23.312;2023-04-01T00:16:00;11.88;;;5.66;;
7169;SDS011;3626;42.656;23.312;2023-04-01T00:16:06;13.23;;;6.03;;
7169;SDS011;3626;42.656;23.312;2023-04-01T00:16:14;13.50;;;6.13;;
7169;SDS011;3626;42.656;23.312;2023-04-01T00:16:20;13.52;;;6.20;;
7169;SDS011;3626;42.656;23.312;2023-04-01T00:16:26;13.25;;;6.20;;
7169;SDS011;3626;42.656;23.312;2023-04-01T00:16:31;13.38;;;6.15;;
7169;SDS011;3626;42.656;23.312;2023-04-01T00:16:37;14.30;;;6.20;;
7169;SDS011;3626;42.656;23.312;2023-04-01T00:16:43;13.65;;;6.20;;
7169;SDS011;3626;42.656;23.312;2023-04-01T00:16:49;13.13;;;6.20;;
7169;SDS011;3626;42.656;23.312;2023-04-01T00:16:55;13.02;;;6.25;;
7169;SDS011;3626;42.656;23.312;2023-04-01T00:17:01;12.63;;;6.15;;
7169;SDS011;3626;42.656;23.312;2023-04-01T00:17:08;11.34;;;5.90;;
7169;SDS011;3626;42.656;23.312;2023-04-01T00:17:14;11.18;;;5.82;;
7169;SDS011;3626;42.656;23.312;2023-04-01T00:17:21;13.83;;;5.93;;
7169;SDS011;3626;42.656;23.312;2023-04-01T00:17:29;13.87;;;5.95;;
7169;SDS011;3626;42.656;23.312;2023-04-01T00:17:35;13.25;;;6.00;;
7169;SDS011;3626;42.656;23.312;2023-04-01T00:17:41;12.63;;;6.00;;
7169;SDS011;3626;42.656;23.312;2023-04-01T00:17:46;12.65;;;6.00;;
7169;SDS011;3626;42.656;23.312;2023-04-01T00:17:52;13.10;;;5.93;;
7169;SDS011;3626;42.656;23.312;2023-04-01T00:17:59;13.00;;;5.80;;
7169;SDS011;3626;42.656;23.312;2023-04-01T00:18:05;14.30;;;6.00;;
7169;SDS011;3626;42.656;23.312;2023-04-01T00:18:12;16.90;;;6.10;;
7169;SDS011;3626;42.656;23.312;2023-04-01T00:18:18;16.93;;;6.17;;
7169;SDS011;3626;42.656;23.312;2023-04-01T00:18:24;15.93;;;6.23;;
7169;SDS011;3626;42.656;23.312;2023-04-01T00:18:29;16.55;;;6.40;;
7169;SDS011;3626;42.656;23.312;2023-04-01T00:18:35;16.90;;;6.38;;
7169;SDS011;3626;42.656;23.312;2023-04-01T00:18:41;17.10;;;6.30;;
7169;SDS011;3626;42.656;23.312;2023-04-01T00:18:47;17.33;;;6.35;;
7169;SDS011;3626;42.656;23.312;2023-04-01T00:18:53;17.38;;;6.36;;
7169;SDS011;3626;42.656;23.312;2023-04-01T00:19:00;17.92;;;6.30;;
7169;SDS011;3626;42.656;23.312;2023-04-01T00:19:06;17.27;;;6.13;;
7169;SDS011;3626;42.656;23.312;2023-04-01T00:19:12;15.65;;;5.95;;
7169;SDS011;3626;42.656;23.312;2023-04-01T00:19:20;14.73;;;5.80;;
7169;SDS011;3626;42.656;23.312;2023-04-01T00:19:25;16.00;;;5.88;;
7169;SDS011;3626;42.656;23.312;2023-04-01T00:19:31;15.70;;;5.73;;
7169;SDS011;3626;42.656;23.312;2023-04-01T00:19:37;15.27;;;5.70;;
7169;SDS011;3626;42.656;23.312;2023-04-01T00:19:43;15.50;;;5.60;;
7169;SDS011;3626;42.656;23.312;2023-04-01T00:19:49;15.98;;;5.55;;
7169;SDS011;3626;42.656;23.312;2023-04-01T00:19:55;16.23;;;5.60;;
7169;SDS011;3626;42.656;23.312;2023-04-01T00:20:01;16.10;;;5.63;;
7169;SDS011;3626;42.656;23.312;2023-04-01T00:20:08;15.67;;;5.73;;
7169;SDS011;3626;42.656;23.312;2023-04-01T00:20:14;15.03;;;5.90;;
7169;SDS011;3626;42.656;23.312;2023-04-01T00:20:20;14.70;;;6.00;;
7169;SDS011;3626;42.656;23.312;2023-04-01T00:20:27;12.63;;;5.70;;
7169;SDS011;3626;42.656;23.312;2023-04-01T00:20:34;13.10;;;5.80;;
7169;SDS011;3626;42.656;23.312;2023-04-01T00:20:42;13.43;;;5.95;;
7169;SDS011;3626;42.656;23.312;2023-04-01T00:20:52;12.66;;;5.95;;
7169;SDS011;3626;42.656;23.312;2023-04-01T00:20:58;13.50;;;6.20;;
7169;SDS011;3626;42.656;23.312;2023-04-01T00:21:04;13.47;;;6.17;;
7169;SDS011;3626;42.656;23.312;2023-04-01T00:21:10;13.46;;;6.08;;
7169;SDS011;3626;42.656;23.312;2023-04-01T00:21:16;13.40;;;5.97;;
7169;SDS011;3626;42.656;23.312;2023-04-01T00:21:23;14.26;;;6.04;;
7169;SDS011;3626;42.656;23.312;2023-04-01T00:21:31;14.97;;;6.15;;
7169;SDS011;3626;42.656;23.312;2023-04-01T00:21:37;15.60;;;6.10;;
7169;SDS011;3626;42.656;23.312;2023-04-01T00:21:43;16.25;;;6.10;;
7169;SDS011;3626;42.656;23.312;2023-04-01T00:21:49;17.20;;;6.03;;
7169;SDS011;3626;42.656;23.312;2023-04-01T00:21:57;17.87;;;5.80;;
7169;SDS011;3626;42.656;23.312;2023-04-01T00:22:04;17.60;;;5.78;;
7169;SDS011;3626;42.656;23.312;2023-04-01T00:22:11;18.50;;;5.82;;
7169;SDS011;3626;42.656;23.312;2023-04-01T00:22:16;18.58;;;5.95;;
7169;SDS011;3626;42.656;23.312;2023-04-01T00:22:23;18.05;;;5.97;;
7169;SDS011;3626;42.656;23.312;2023-04-01T00:22:29;17.64;;;5.90;;
7169;SDS011;3626;42.656;23.312;2023-04-01T00:22:35;17.43;;;5.73;;
7169;SDS011;3626;42.656;23.312;2023-04-01T00:22:41;18.67;;;5.80;;
7169;SDS011;3626;42.656;23.312;2023-04-01T00:22:49;18.10;;;5.70;;
7169;SDS011;3626;42.656;23.312;2023-04-01T00:22:55;20.80;;;5.70;;
7169;SDS011;3626;42.656;23.312;2023-04-01T00:23:01;21.10;;;5.70;;
7169;SDS011;3626;42.656;23.312;2023-04-01T00:23:07;19.40;;;5.72;;
7169;SDS011;3626;42.656;23.312;2023-04-01T00:23:13;19.92;;;5.80;;
7169;SDS011;3626;42.656;23.312;2023-04-01T00:23:19;19.90;;;5.72;;
7169;SDS011;3626;42.656;23.312;2023-04-01T00:23:25;20.00;;;5.65;;
7169;SDS011;3626;42.656;23.312;2023-04-01T00:23:32;20.60;;;5.80;;
7169;SDS011;3626;42.656;23.312;2023-04-01T00:23:37;19.83;;;5.85;;
7169;SDS011;3626;42.656;23.312;2023-04-01T00:23:43;19.83;;;5.72;;
7169;SDS011;3626;42.656;23.312;2023-04-01T00:23:49;18.70;;;5.73;;
7169;SDS011;3626;42.656;23.312;2023-04-01T00:23:55;16.08;;;5.80;;
7169;SDS011;3626;42.656;23.312;2023-04-01T00:24:03;16.80;;;5.90;;
7169;SDS011;3626;42.656;23.312;2023-04-01T00:24:09;17.10;;;5.80;;
7169;SDS011;3626;42.656;23.312;2023-04-01T00:24:15;17.25;;;5.80;;
7169;SDS011;3626;42.656;23.312;2023-04-01T00:24:20;18.23;;;5.80;;
7169;SDS011;3626;42.656;23.312;2023-04-01T00:24:26;17.42;;;5.63;;
7169;SDS011;3626;42.656;23.312;2023-04-01T00:24:32;17.00;;;5.60;;
7169;SDS011;3626;42.656;23.312;2023-04-01T00:24:38;15.75;;;5.60;;
7169;SDS011;3626;42.656;23.312;2023-04-01T00:24:44;15.45;;;5.70;;
7169;SDS011;3626;42.656;23.312;2023-04-01T00:24:51;15.15;;;5.65;;
7169;SDS011;3626;42.656;23.312;2023-04-01T00:24:57;14.67;;;5.70;;
7169;SDS011;3626;42.656;23.312;2023-04-01T00:25:03;15.00;;;5.78;;
7169;SDS011;3626;42.656;23.312;2023-04-01T00:25:10;14.87;;;5.67;;
7169;SDS011;3626;42.656;23.312;2023-04-01T00:25:15;14.00;;;5.57;;
7169;SDS011;3626;42.656;23.312;2023-04-01T00:25:21;13.85;;;5.57;;
7169;SDS011;3626;42.656;23.312;2023-04-01T00:25:28;14.50;;;5.70;;
7169;SDS011;3626;42.656;23.312;2023-04-01T00:25:34;14.52;;;5.75;;
7169;SDS011;3626;42.656;23.312;2023-04-01T00:25:40;14.60;;;5.85;;
7169;SDS011;3626;42.656;23.312;2023-04-01T00:25:46;15.50;;;6.05;;
7169;SDS011;3626;42.656;23.312;2023-04-01T00:25:52;17.04;;;6.04;;
7169;SDS011;3626;42.656;23.312;2023-04-01T00:25:58;16.45;;;5.95;;
7169;SDS011;3626;42.656;23.312;2023-04-01T00:26:05;14.90;;;5.90;;
7169;SDS011;3626;42.656;23.312;2023-04-01T00:26:10;15.50;;;6.00;;
7169;SDS011;3626;42.656;23.312;2023-04-01T00:26:24;16.23;;;6.15;;
7169;SDS011;3626;42.656;23.312;2023-04-01T00:26:30;19.35;;;6.40;;
7169;SDS011;3626;42.656;23.312;2023-04-01T00:26:36;19.10;;;6.28;;
7169;SDS011;3626;42.656;23.312;2023-04-01T00:26:41;19.45;;;6.20;;
7169;SDS011;3626;42.656;23.312;2023-04-01T00:26:47;18.02;;;6.07;;
7169;SDS011;3626;42.656;23.312;2023-04-01T00:26:54;17.30;;;6.10;;
7169;SDS011;3626;42.656;23.312;2023-04-01T00:27:00;17.50;;;6.10;;
7169;SDS011;3626;42.656;23.312;2023-04-01T00:27:06;18.20;;;6.10;;
7169;SDS011;3626;42.656;23.312;2023-04-01T00:27:13;19.24;;;6.24;;
7169;SDS011;3626;42.656;23.312;2023-04-01T00:27:19;19.70;;;6.40;;
7169;SDS011;3626;42.656;23.312;2023-04-01T00:27:25;19.70;;;6.25;;
7169;SDS011;3626;42.656;23.312;2023-04-01T00:27:31;17.40;;;6.20;;
7169;SDS011;3626;42.656;23.312;2023-04-01T00:27:39;17.55;;;6.17;;
7169;SDS011;3626;42.656;23.312;2023-04-01T00:27:44;18.58;;;6.25;;
7169;SDS011;3626;42.656;23.312;2023-04-01T00:27:50;18.50;;;6.30;;
7169;SDS011;3626;42.656;23.312;2023-04-01T00:27:56;17.95;;;6.40;;
7169;SDS011;3626;42.656;23.312;2023-04-01T00:28:02;18.00;;;6.40;;
7169;SDS011;3626;42.656;23.312;2023-04-01T00:28:08;16.60;;;6.18;;
7169;SDS011;3626;42.656;23.312;2023-04-01T00:28:14;16.20;;;6.13;;
7169;SDS011;3626;42.656;23.312;2023-04-01T00:28:22;16.40;;;6.20;;
7169;SDS011;3626;42.656;23.312;2023-04-01T00:28:29;16.97;;;6.30;;
7169;SDS011;3626;42.656;23.312;2023-04-01T00:28:36;18.08;;;6.32;;
7169;SDS011;3626;42.656;23.312;2023-04-01T00:28:42;16.83;;;6.40;;
7169;SDS011;3626;42.656;23.312;2023-04-01T00:28:48;18.10;;;6.40;;
7169;SDS011;3626;42.656;23.312;2023-04-01T00:28:54;20.20;;;6.57;;
7169;SDS011;3626;42.656;23.312;2023-04-01T00:29:00;21.13;;;6.68;;
7169;SDS011;3626;42.656;23.312;2023-04-01T00:29:06;21.87;;;6.77;;
7169;SDS011;3626;42.656;23.312;2023-04-01T00:29:12;21.65;;;6.80;;
7169;SDS011;3626;42.656;23.312;2023-04-01T00:29:17;20.35;;;6.65;;
7169;SDS011;3626;42.656;23.312;2023-04-01T00:29:23;22.60;;;6.78;;
7169;SDS011;3626;42.656;23.312;2023-04-01T00:29:34;20.10;;;6.40;;
7169;SDS011;3626;42.656;23.312;2023-04-01T00:29:41;19.97;;;6.37;;
7169;SDS011;3626;42.656;23.312;2023-04-01T00:29:47;18.40;;;6.10;;
7169;SDS011;3626;42.656;23.312;2023-04-01T00:29:53;18.30;;;5.97;;
7169;SDS011;3626;42.656;23.312;2023-04-01T00:29:59;18.35;;;5.80;;
7169;SDS011;3626;42.656;23.312;2023-04-01T00:30:06;18.22;;;5.80;;
7169;SDS011;3626;42.656;23.312;2023-04-01T00:30:13;19.62;;;5.88;;
7169;SDS011;3626;42.656;23.312;2023-04-01T00:30:19;19.80;;;5.97;;
7169;SDS011;3626;42.656;23.312;2023-04-01T00:30:25;17.90;;;5.90;;
7169;SDS011;3626;42.656;23.312;2023-04-01T00:30:31;18.30;;;6.10;;
7169;SDS011;3626;42.656;23.312;2023-04-01T00:30:37;18.80;;;6.22;;
7169;SDS011;3626;42.656;23.312;2023-04-01T00:30:42;19.35;;;6.53;;
7169;SDS011;3626;42.656;23.312;2023-04-01T00:30:48;20.70;;;7.05;;
7169;SDS011;3626;42.656;23.312;2023-04-01T00:30:54;19.45;;;7.00;;
7169;SDS011;3626;42.656;23.312;2023-04-01T00:31:03;18.50;;;7.10;;
7169;SDS011;3626;42.656;23.312;2023-04-01T00:31:10;20.30;;;7.40;;
7169;SDS011;3626;42.656;23.312;2023-04-01T00:31:18;18.70;;;7.50;;
7169;SDS011;3626;42.656;23.312;2023-04-01T00:31:24;18.92;;;7.72;;
7169;SDS011;3626;42.656;23.312;2023-04-01T00:31:31;19.27;;;7.80;;
7169;SDS011;3626;42.656;23.312;2023-04-01T00:31:36;19.60;;;7.80;;
7169;SDS011;3626;42.656;23.312;2023-04-01T00:31:42;19.60;;;7.70;;
7169;SDS011;3626;42.656;23.312;2023-04-01T00:31:48;18.80;;;7.50;;
7169;SDS011;3626;42.656;23.312;2023-04-01T00:31:54;18.10;;;7.40;;
7169;SDS011;3626;42.656;23.312;2023-04-01T00:32:00;17.92;;;7.48;;
7169;SDS011;3626;42.656;23.312;2023-04-01T00:32:06;15.20;;;7.25;;
7169;SDS011;3626;42.656;23.312;2023-04-01T00:32:12;15.50;;;7.27;;
7169;SDS011;3626;42.656;23.312;2023-04-01T00:32:18;15.50;;;7.04;;
7169;SDS011;3626;42.656;23.312;2023-04-01T00:32:24;15.40;;;7.00;;
7169;SDS011;3626;42.656;23.312;2023-04-01T00:32:31;14.97;;;7.00;;
7169;SDS011;3626;42.656;23.312;2023-04-01T00:32:37;14.32;;;7.05;;
7169;SDS011;3626;42.656;23.312;2023-04-01T00:32:43;14.45;;;7.20;;
7169;SDS011;3626;42.656;23.312;2023-04-01T00:32:51;14.70;;;7.20;;
7169;SDS011;3626;42.656;23.312;2023-04-01T00:32:56;15.57;;;7.40;;
7169;SDS011;3626;42.656;23.312;2023-04-01T00:33:02;16.20;;;7.45;;
7169;SDS011;3626;42.656;23.312;2023-04-01T00:33:08;16.92;;;7.60;;
7169;SDS011;3626;42.656;23.312;2023-04-01T00:33:14;16.47;;;7.60;;
7169;SDS011;3626;42.656;23.312;2023-04-01T00:33:21;16.80;;;7.70;;
7169;SDS011;3626;42.656;23.312;2023-04-01T00:33:27;18.25;;;7.82;;
7169;SDS011;3626;42.656;23.312;2023-04-01T00:33:33;18.67;;;7.97;;
7169;SDS011;3626;42.656;23.312;2023-04-01T00:33:39;18.38;;;7.82;;
7169;SDS011;3626;42.656;23.312;2023-04-01T00:33:45;18.64;;;7.88;;
7169;SDS011;3626;42.656;23.312;2023-04-01T00:33:52;20.15;;;7.90;;
7169;SDS011;3626;42.656;23.312;2023-04-01T00:33:57;19.85;;;7.70;;
7169;SDS011;3626;42.656;23.312;2023-04-01T00:34:04;19.10;;;7.57;;
7169;SDS011;3626;42.656;23.312;2023-04-01T00:34:09;18.65;;;7.50;;
7169;SDS011;3626;42.656;23.312;2023-04-01T00:34:17;18.77;;;7.43;;
7169;SDS011;3626;42.656;23.312;2023-04-01T00:34:22;17.02;;;7.32;;
7169;SDS011;3626;42.656;23.312;2023-04-01T00:34:28;16.65;;;7.35;;
7169;SDS011;3626;42.656;23.312;2023-04-01T00:34:34;16.63;;;7.40;;
7169;SDS011;3626;42.656;23.312;2023-04-01T00:34:40;16.52;;;7.57;;
7169;SDS011;3626;42.656;23.312;2023-04-01T00:34:49;15.88;;;7.40;;
7169;SDS011;3626;42.656;23.312;2023-04-01T00:34:55;15.90;;;7.67;;
7169;SDS011;3626;42.656;23.312;2023-04-01T00:35:01;15.93;;;7.72;;
7169;SDS011;3626;42.656;23.312;2023-04-01T00:35:07;16.42;;;7.70;;
7169;SDS011;3626;42.656;23.312;2023-04-01T00:35:13;17.45;;;7.95;;
7169;SDS011;3626;42.656;23.312;2023-04-01T00:35:20;19.43;;;8.03;;
7169;SDS011;3626;42.656;23.312;2023-04-01T00:35:27;20.60;;;8.06;;
7169;SDS011;3626;42.656;23.312;2023-04-01T00:35:33;20.83;;;7.97;;
7169;SDS011;3626;42.656;23.312;2023-04-01T00:35:39;21.23;;;7.82;;
7169;SDS011;3626;42.656;23.312;2023-04-01T00:35:45;22.30;;;7.90;;
7169;SDS011;3626;42.656;23.312;2023-04-01T00:35:51;22.35;;;8.00;;
7169;SDS011;3626;42.656;23.312;2023-04-01T00:36:04;21.33;;;8.00;;
7169;SDS011;3626;42.656;23.312;2023-04-01T00:36:11;21.17;;;8.15;;
7169;SDS011;3626;42.656;23.312;2023-04-01T00:36:19;20.30;;;8.23;;
7169;SDS011;3626;42.656;23.312;2023-04-01T00:36:28;19.16;;;8.26;;
7169;SDS011;3626;42.656;23.312;2023-04-01T00:36:34;20.20;;;8.50;;
7169;SDS011;3626;42.656;23.312;2023-04-01T00:36:39;21.70;;;8.68;;
7169;SDS011;3626;42.656;23.312;2023-04-01T00:36:45;22.92;;;8.73;;
7169;SDS011;3626;42.656;23.312;2023-04-01T00:36:51;22.15;;;8.63;;
7169;SDS011;3626;42.656;23.312;2023-04-01T00:36:57;23.03;;;8.90;;
7169;SDS011;3626;42.656;23.312;2023-04-01T00:37:03;23.33;;;8.95;;
7169;SDS011;3626;42.656;23.312;2023-04-01T00:37:09;23.48;;;9.15;;
7169;SDS011;3626;42.656;23.312;2023-04-01T00:37:15;22.88;;;9.27;;
7169;SDS011;3626;42.656;23.312;2023-04-01T00:37:21;23.10;;;9.57;;
7169;SDS011;3626;42.656;23.312;2023-04-01T00:37:27;22.93;;;9.60;;
7169;SDS011;3626;42.656;23.312;2023-04-01T00:37:34;22.10;;;9.57;;
7169;SDS011;3626;42.656;23.312;2023-04-01T00:37:41;19.97;;;9.45;;
7169;SDS011;3626;42.656;23.312;2023-04-01T00:37:47;18.27;;;9.40;;
7169;SDS011;3626;42.656;23.312;2023-04-01T00:37:54;17.58;;;9.30;;
7169;SDS011;3626;42.656;23.312;2023-04-01T00:38:00;16.77;;;9.00;;
7169;SDS011;3626;42.656;23.312;2023-04-01T00:38:06;19.17;;;8.90;;